createdAt,value
2023-02-19T00:00:14.947Z,3.80
2023-02-19T00:02:59.238Z,3.90
2023-02-19T00:05:38.316Z,3.75
2023-02-19T00:08:30.585Z,5.25
2023-02-19T00:11:14.661Z,3.22
2023-02-19T00:16:47.536Z,3.92
2023-02-19T00:19:30.359Z,3.10
2023-02-19T00:22:25.059Z,2.72
2023-02-19T00:25:03.709Z,3.83
2023-02-19T00:27:45.296Z,2.70
2023-02-19T00:30:33.943Z,2.45
2023-02-19T00:33:14.071Z,2.20
2023-02-19T00:35:55.074Z,2.55
2023-02-19T00:38:42.119Z,2.92
2023-02-19T00:41:22.444Z,3.92
2023-02-19T00:44:03.378Z,2.50
2023-02-19T00:46:47.535Z,4.45
2023-02-19T00:49:39.434Z,3.00
2023-02-19T00:52:21.303Z,3.00
2023-02-19T00:55:08.328Z,3.30
2023-02-19T00:57:55.190Z,2.55
2023-02-19T01:00:36.971Z,3.38
2023-02-19T01:03:19.688Z,3.58
2023-02-19T01:06:01.156Z,3.22
2023-02-19T01:08:50.703Z,4.43
2023-02-19T01:11:42.225Z,3.35
2023-02-19T01:14:17.260Z,2.40
2023-02-19T01:16:58.160Z,2.55
2023-02-19T01:19:42.524Z,3.30
2023-02-19T01:22:38.657Z,2.95
2023-02-19T01:25:24.742Z,2.55
2023-02-19T01:28:13.661Z,2.50
2023-02-19T01:30:54.868Z,3.15
2023-02-19T01:33:34.095Z,3.30
2023-02-19T01:36:21.517Z,2.78
2023-02-19T01:38:54.646Z,2.92
2023-02-19T01:41:38.997Z,2.92
2023-02-19T01:44:56.415Z,3.53
2023-02-19T01:47:48.278Z,2.85
2023-02-19T01:50:38.287Z,4.80
2023-02-19T01:53:27.782Z,3.33
2023-02-19T01:56:21.050Z,3.22
2023-02-19T01:59:09.865Z,2.90
2023-02-19T02:01:48.210Z,2.85
2023-02-19T02:04:34.407Z,4.45
2023-02-19T02:07:32.042Z,3.28
2023-02-19T02:10:31.348Z,2.80
2023-02-19T02:13:10.554Z,3.22
2023-02-19T02:16:01.407Z,3.10
2023-02-19T02:18:54.675Z,3.73
2023-02-19T02:22:21.639Z,3.10
2023-02-19T02:26:14.298Z,2.50
2023-02-19T02:29:37.360Z,2.92
2023-02-19T02:32:26.256Z,3.47
2023-02-19T02:35:23.578Z,3.78
2023-02-19T02:38:08.226Z,3.72
2023-02-19T02:40:53.487Z,3.03
2023-02-19T02:43:37.041Z,4.57
2023-02-19T02:46:37.882Z,3.33
2023-02-19T02:49:23.759Z,3.90
2023-02-19T02:52:25.262Z,3.47
2023-02-19T02:55:13.256Z,3.67
2023-02-19T02:57:53.612Z,4.20
2023-02-19T03:01:04.820Z,3.28
2023-02-19T03:03:51.081Z,3.65
2023-02-19T03:06:30.555Z,3.53
2023-02-19T03:09:37.353Z,3.63
2023-02-19T03:12:36.956Z,3.17
2023-02-19T03:15:31.532Z,3.42
2023-02-19T03:18:30.712Z,11.70
2023-02-19T03:21:17.381Z,2.97
2023-02-19T03:24:12.352Z,3.00
2023-02-19T03:26:57.059Z,3.53
2023-02-19T03:29:45.016Z,6.50
2023-02-19T03:32:29.061Z,3.03
2023-02-19T03:35:33.955Z,3.03
2023-02-19T03:38:39.578Z,3.95
2023-02-19T03:41:58.980Z,2.47
2023-02-19T03:45:23.123Z,3.25
2023-02-19T03:48:34.689Z,3.83
2023-02-19T03:51:58.934Z,3.42
2023-02-19T03:54:58.100Z,3.00
2023-02-19T03:58:14.175Z,3.35
2023-02-19T04:01:16.247Z,3.70
2023-02-19T04:03:57.466Z,3.10
2023-02-19T04:06:48.516Z,3.53
2023-02-19T04:09:33.457Z,3.05
2023-02-19T04:12:17.356Z,3.42
2023-02-19T04:15:24.794Z,3.63
2023-02-19T04:18:36.300Z,2.88
2023-02-19T04:21:19.013Z,3.67
2023-02-19T04:24:15.346Z,3.28
2023-02-19T04:26:57.221Z,5.00
2023-02-19T04:29:38.848Z,3.25
2023-02-19T04:32:31.243Z,2.97
2023-02-19T04:35:20.757Z,2.85
2023-02-19T04:38:13.978Z,2.20
2023-02-19T04:40:52.494Z,3.38
2023-02-19T04:43:42.917Z,3.33
2023-02-19T04:46:35.039Z,4.38
2023-02-19T04:49:19.280Z,3.47
2023-02-19T04:52:07.200Z,4.05
2023-02-19T04:55:04.147Z,4.53
2023-02-19T04:57:50.738Z,4.38
2023-02-19T05:00:37.080Z,4.10
2023-02-19T05:03:18.165Z,4.68
2023-02-19T05:06:09.238Z,3.70
2023-02-19T05:08:55.490Z,3.15
2023-02-19T05:11:41.761Z,4.10
2023-02-19T05:14:24.441Z,3.38
2023-02-19T05:17:08.078Z,3.63
2023-02-19T05:19:51.116Z,3.28
2023-02-19T05:22:38.375Z,3.67
2023-02-19T05:25:24.371Z,3.65
2023-02-19T05:28:28.708Z,3.35
2023-02-19T05:31:16.369Z,2.65
2023-02-19T05:34:08.893Z,4.35
2023-02-19T05:36:47.327Z,3.20
2023-02-19T05:39:27.521Z,3.45
2023-02-19T05:42:23.416Z,3.20
2023-02-19T05:45:15.060Z,3.20
2023-02-19T05:48:01.219Z,3.50
2023-02-19T05:50:51.789Z,3.13
2023-02-19T05:53:39.979Z,3.05
2023-02-19T05:56:35.352Z,3.40
2023-02-19T05:59:38.558Z,3.00
2023-02-19T06:02:28.700Z,2.70
2023-02-19T06:05:12.684Z,3.30
2023-02-19T06:07:50.943Z,2.65
2023-02-19T06:10:39.204Z,2.60
2023-02-19T06:13:38.682Z,2.97
2023-02-19T06:16:25.967Z,3.15
2023-02-19T06:19:13.840Z,2.55
2023-02-19T06:22:03.928Z,2.78
2023-02-19T06:24:51.266Z,3.35
2023-02-19T06:27:51.120Z,2.65
2023-02-19T06:30:35.320Z,2.72
2023-02-19T06:33:23.687Z,2.50
2023-02-19T06:36:04.538Z,2.75
2023-02-19T06:38:58.740Z,6.88
2023-02-19T06:41:39.736Z,3.22
2023-02-19T06:44:23.188Z,2.97
2023-02-19T06:47:13.417Z,3.65
2023-02-19T06:49:56.766Z,3.55
2023-02-19T06:52:53.974Z,3.00
2023-02-19T06:58:23.184Z,3.40
2023-02-19T07:01:11.589Z,3.28
2023-02-19T07:03:53.337Z,3.67
2023-02-19T07:06:37.152Z,3.28
2023-02-19T07:09:24.137Z,4.03
2023-02-19T07:12:11.264Z,4.05
2023-02-19T07:14:48.598Z,3.95
2023-02-19T07:17:32.466Z,3.85
2023-02-19T07:20:19.233Z,4.40
2023-02-19T07:22:59.909Z,4.00
2023-02-19T07:25:50.261Z,5.15
2023-02-19T07:28:34.405Z,3.97
2023-02-19T07:31:14.261Z,6.38
2023-02-19T07:34:01.529Z,3.53
2023-02-19T07:36:43.230Z,5.10
2023-02-19T07:39:29.280Z,4.05
2023-02-19T07:42:15.314Z,3.35
2023-02-19T07:45:00.607Z,3.85
2023-02-19T07:47:48.322Z,2.85
2023-02-19T07:50:29.396Z,3.45
2023-02-19T07:53:15.744Z,2.80
2023-02-19T07:56:06.327Z,3.35
2023-02-19T07:58:47.370Z,2.50
2023-02-19T08:01:46.815Z,2.67
2023-02-19T08:04:30.675Z,4.65
2023-02-19T08:07:33.640Z,2.67
2023-02-19T08:10:28.139Z,2.67
2023-02-19T08:13:25.492Z,4.35
2023-02-19T08:16:42.875Z,2.28
2023-02-19T08:19:21.176Z,2.35
2023-02-19T08:22:03.008Z,2.60
2023-02-19T08:24:45.426Z,2.70
2023-02-19T08:27:35.310Z,2.42
2023-02-19T08:30:13.077Z,2.75
2023-02-19T08:33:02.277Z,3.88
2023-02-19T08:35:40.263Z,2.47
2023-02-19T08:38:26.950Z,2.83
2023-02-19T08:41:00.026Z,4.25
2023-02-19T08:43:44.282Z,2.95
2023-02-19T08:46:34.094Z,2.90
2023-02-19T08:49:10.178Z,5.28
2023-02-19T08:51:54.303Z,3.78
2023-02-19T08:54:41.544Z,3.20
2023-02-19T08:57:26.306Z,2.42
2023-02-19T09:00:13.232Z,2.40
2023-02-19T09:03:03.756Z,3.67
2023-02-19T09:05:47.240Z,2.67
2023-02-19T09:09:06.595Z,2.95
2023-02-19T09:11:54.256Z,3.35
2023-02-19T09:14:34.982Z,3.92
2023-02-19T09:17:19.071Z,3.90
2023-02-19T09:19:54.385Z,5.78
2023-02-19T09:22:45.018Z,6.20
2023-02-19T09:25:31.503Z,6.53
2023-02-19T09:28:23.217Z,7.47
2023-02-19T09:31:24.391Z,7.63
2023-02-19T09:34:02.315Z,10.55
2023-02-19T09:36:40.946Z,10.27
2023-02-19T09:39:33.308Z,9.77
2023-02-19T09:42:51.823Z,9.70
2023-02-19T09:45:38.632Z,11.63
2023-02-19T09:48:24.885Z,13.93
2023-02-19T09:51:06.582Z,16.35
2023-02-19T09:53:54.049Z,15.70
2023-02-19T09:56:40.041Z,20.88
2023-02-19T09:59:39.382Z,19.02
2023-02-19T10:02:31.252Z,15.98
2023-02-19T10:05:21.521Z,18.23
2023-02-19T10:07:59.323Z,16.80
2023-02-19T10:10:47.268Z,18.10
2023-02-19T10:14:01.767Z,20.50
2023-02-19T10:16:45.268Z,14.90
2023-02-19T10:19:25.926Z,16.00
2023-02-19T10:22:02.082Z,15.73
2023-02-19T10:24:45.910Z,12.18
2023-02-19T10:27:35.214Z,10.98
2023-02-19T10:30:23.729Z,12.55
2023-02-19T10:33:21.352Z,12.40
2023-02-19T10:36:31.300Z,10.82
2023-02-19T10:39:31.697Z,15.15
2023-02-19T10:42:26.451Z,12.20
2023-02-19T10:45:19.729Z,13.57
2023-02-19T10:48:08.130Z,13.20
2023-02-19T10:51:00.527Z,15.63
2023-02-19T10:54:04.331Z,11.40
2023-02-19T10:56:49.725Z,9.73
2023-02-19T10:59:34.773Z,12.02
2023-02-19T11:02:31.373Z,10.90
2023-02-19T11:05:23.428Z,10.77
2023-02-19T11:08:03.533Z,10.55
2023-02-19T11:10:56.316Z,8.88
2023-02-19T11:13:43.280Z,7.32
2023-02-19T11:16:22.726Z,6.60
2023-02-19T11:19:12.301Z,6.57
2023-02-19T11:21:59.591Z,5.75
2023-02-19T11:24:44.338Z,5.78
2023-02-19T11:27:32.273Z,2.50
2023-02-19T11:30:53.274Z,2.85
2023-02-19T11:33:37.131Z,2.83
2023-02-19T11:36:37.444Z,3.70
2023-02-19T11:39:18.682Z,3.50
2023-02-19T11:42:48.492Z,4.63
2023-02-19T11:46:05.570Z,4.88
2023-02-19T11:48:47.829Z,4.28
2023-02-19T11:51:41.646Z,4.22
2023-02-19T11:54:55.001Z,6.68
2023-02-19T11:57:50.404Z,6.10
2023-02-19T12:00:32.380Z,4.72
2023-02-19T12:03:43.571Z,7.20
2023-02-19T12:06:51.113Z,6.68
2023-02-19T12:09:45.175Z,6.03
2023-02-19T12:12:32.745Z,4.85
2023-02-19T12:15:41.201Z,4.00
2023-02-19T12:19:21.359Z,3.70
2023-02-19T12:22:13.998Z,6.05
2023-02-19T12:25:40.263Z,4.40
2023-02-19T12:28:28.482Z,4.35
2023-02-19T12:31:47.296Z,4.25
2023-02-19T12:34:49.260Z,4.90
2023-02-19T12:41:04.009Z,2.88
2023-02-19T12:43:49.354Z,3.28
2023-02-19T12:46:47.079Z,3.38
2023-02-19T12:49:37.356Z,6.95
2023-02-19T12:52:26.650Z,3.33
2023-02-19T12:55:17.177Z,3.22
2023-02-19T12:57:58.387Z,4.45
2023-02-19T13:01:01.591Z,4.65
2023-02-19T13:04:08.641Z,2.95
2023-02-19T13:06:59.162Z,3.30
2023-02-19T13:09:50.163Z,2.55
2023-02-19T13:12:44.277Z,3.58
2023-02-19T13:15:41.350Z,4.57
2023-02-19T13:18:27.573Z,1.60
2023-02-19T13:21:13.379Z,1.70
2023-02-19T13:24:20.300Z,2.50
2023-02-19T13:27:48.439Z,1.95
2023-02-19T13:33:39.410Z,1.27
2023-02-19T13:36:26.602Z,4.13
2023-02-19T13:39:12.735Z,4.47
2023-02-19T13:42:25.677Z,4.68
2023-02-19T13:45:14.031Z,1.80
2023-02-19T13:48:15.912Z,3.03
2023-02-19T13:51:47.891Z,1.60
2023-02-19T13:54:40.411Z,2.95
2023-02-19T13:57:32.258Z,15.13
2023-02-19T14:00:49.035Z,6.82
2023-02-19T14:04:26.895Z,5.32
2023-02-19T14:07:14.700Z,2.30
2023-02-19T14:10:01.946Z,2.55
2023-02-19T14:12:45.350Z,5.47
2023-02-19T14:15:44.688Z,3.00
2023-02-19T14:18:56.777Z,5.03
2023-02-19T14:21:46.650Z,3.00
2023-02-19T14:24:26.243Z,6.22
2023-02-19T14:27:12.853Z,4.72
2023-02-19T14:29:58.317Z,2.20
2023-02-19T14:32:43.389Z,2.47
2023-02-19T14:35:42.971Z,2.22
2023-02-19T14:38:33.743Z,1.67
2023-02-19T14:41:24.197Z,2.00
2023-02-19T14:44:04.147Z,1.20
2023-02-19T14:46:50.417Z,2.35
2023-02-19T14:49:44.627Z,7.72
2023-02-19T14:52:41.062Z,1.67
2023-02-19T14:55:31.216Z,2.22
2023-02-19T14:58:39.318Z,1.52
2023-02-19T15:01:35.463Z,3.00
2023-02-19T15:04:32.293Z,1.75
2023-02-19T15:07:19.611Z,1.45
2023-02-19T15:10:03.679Z,2.45
2023-02-19T15:12:59.192Z,2.58
2023-02-19T15:15:48.084Z,1.95
2023-02-19T15:18:52.208Z,1.75
2023-02-19T15:21:35.302Z,1.73
2023-02-19T15:24:14.998Z,1.80
2023-02-19T15:27:00.300Z,1.98
2023-02-19T15:29:57.333Z,1.80
2023-02-19T15:33:00.276Z,1.90
2023-02-19T15:35:46.297Z,1.98
2023-02-19T15:38:33.508Z,2.00
2023-02-19T15:41:30.254Z,2.63
2023-02-19T15:44:32.221Z,2.53
2023-02-19T15:47:29.773Z,3.03
2023-02-19T15:50:30.264Z,2.20
2023-02-19T15:53:31.793Z,4.45
2023-02-19T15:56:15.240Z,2.75
2023-02-19T15:59:18.389Z,11.85
2023-02-19T16:02:05.236Z,5.75
2023-02-19T16:04:58.014Z,5.95
2023-02-19T16:07:42.164Z,6.80
2023-02-19T16:10:41.127Z,4.35
2023-02-19T16:13:43.481Z,5.88
2023-02-19T16:16:43.716Z,3.78
2023-02-19T16:19:33.965Z,5.28
2023-02-19T16:22:25.931Z,3.13
2023-02-19T16:25:08.373Z,7.78
2023-02-19T16:27:48.067Z,5.68
2023-02-19T16:30:46.329Z,4.22
2023-02-19T16:33:48.746Z,4.65
2023-02-19T16:36:48.549Z,6.47
2023-02-19T16:39:25.559Z,5.65
2023-02-19T16:42:31.256Z,4.45
2023-02-19T16:45:18.091Z,3.35
2023-02-19T16:48:16.787Z,3.25
2023-02-19T16:50:53.936Z,2.22
2023-02-19T16:53:35.873Z,4.93
2023-02-19T16:56:24.179Z,6.68
2023-02-19T16:59:05.298Z,6.10
2023-02-19T17:01:52.033Z,5.60
2023-02-19T17:04:35.467Z,5.25
2023-02-19T17:07:19.065Z,4.90
2023-02-19T17:10:18.084Z,5.45
2023-02-19T17:13:21.065Z,6.88
2023-02-19T17:16:03.320Z,10.48
2023-02-19T17:18:46.961Z,8.43
2023-02-19T17:21:38.861Z,5.80
2023-02-19T17:24:24.603Z,20.63
2023-02-19T17:27:12.366Z,10.75
2023-02-19T17:29:53.937Z,10.30
2023-02-19T17:32:42.211Z,13.93
2023-02-19T17:35:19.792Z,8.38
2023-02-19T17:38:10.288Z,12.95
2023-02-19T17:44:30.275Z,17.30
2023-02-19T17:47:22.451Z,16.75
2023-02-19T17:50:09.515Z,8.23
2023-02-19T17:53:01.914Z,7.65
2023-02-19T17:55:47.416Z,6.72
2023-02-19T17:58:35.635Z,8.48
2023-02-19T18:01:13.993Z,7.25
2023-02-19T18:03:54.756Z,9.60
2023-02-19T18:06:35.095Z,5.82
2023-02-19T18:09:23.061Z,4.57
2023-02-19T18:12:07.482Z,9.40
2023-02-19T18:14:59.144Z,6.72
2023-02-19T18:17:42.724Z,5.55
2023-02-19T18:20:35.329Z,5.32
2023-02-19T18:23:22.131Z,8.38
2023-02-19T18:26:13.454Z,6.20
2023-02-19T18:29:01.808Z,12.15
2023-02-19T18:31:54.570Z,20.95
2023-02-19T18:35:02.067Z,7.22
2023-02-19T18:37:59.046Z,8.82
2023-02-19T18:40:52.458Z,13.82
2023-02-19T18:43:34.810Z,6.23
2023-02-19T18:46:24.650Z,12.15
2023-02-19T18:49:20.751Z,10.43
2023-02-19T18:52:04.429Z,5.38
2023-02-19T18:54:36.958Z,6.82
2023-02-19T18:57:15.447Z,11.70
2023-02-19T19:00:06.552Z,8.65
2023-02-19T19:02:51.113Z,8.20
2023-02-19T19:06:02.127Z,6.95
2023-02-19T19:08:42.765Z,7.28
2023-02-19T19:11:22.701Z,6.65
2023-02-19T19:14:04.958Z,6.75
2023-02-19T19:16:45.925Z,8.13
2023-02-19T19:19:30.285Z,8.30
2023-02-19T19:22:29.199Z,6.80
2023-02-19T19:25:09.958Z,7.25
2023-02-19T19:27:56.652Z,4.88
2023-02-19T19:30:45.655Z,7.22
2023-02-19T19:33:31.522Z,5.47
2023-02-19T19:36:23.344Z,6.80
2023-02-19T19:39:00.813Z,5.35
2023-02-19T19:41:41.376Z,5.50
2023-02-19T19:44:25.286Z,9.05
2023-02-19T19:47:01.364Z,6.97
2023-02-19T19:49:42.338Z,5.30
2023-02-19T19:52:27.209Z,5.65
2023-02-19T19:55:04.178Z,4.65
2023-02-19T19:57:46.184Z,4.97
2023-02-19T20:00:32.377Z,5.07
2023-02-19T20:03:27.346Z,4.82
2023-02-19T20:06:17.218Z,5.55
2023-02-19T20:09:04.280Z,4.43
2023-02-19T20:11:52.737Z,6.20
2023-02-19T20:14:41.597Z,12.77
2023-02-19T20:17:28.996Z,5.90
2023-02-19T20:20:13.641Z,5.57
2023-02-19T20:22:59.901Z,6.90
2023-02-19T20:28:16.098Z,12.15
2023-02-19T20:31:13.983Z,15.23
2023-02-19T20:33:52.229Z,6.70
2023-02-19T20:36:33.078Z,7.32
2023-02-19T20:39:15.377Z,5.13
2023-02-19T20:41:59.222Z,6.10
2023-02-19T20:44:40.573Z,5.13
2023-02-19T20:47:31.529Z,4.57
2023-02-19T20:50:32.208Z,4.75
2023-02-19T20:53:18.137Z,3.22
2023-02-19T20:56:06.217Z,3.85
2023-02-19T20:58:52.730Z,3.53
2023-02-19T21:01:37.367Z,4.63
2023-02-19T21:04:22.040Z,3.58
2023-02-19T21:07:15.116Z,3.90
2023-02-19T21:09:57.347Z,4.63
2023-02-19T21:12:59.388Z,3.17
2023-02-19T21:15:45.123Z,2.95
2023-02-19T21:18:22.807Z,3.72
2023-02-19T21:21:03.613Z,3.95
2023-02-19T21:23:47.231Z,3.72
2023-02-19T21:26:32.346Z,6.05
2023-02-19T21:29:11.726Z,5.50
2023-02-19T21:31:58.157Z,6.78
2023-02-19T21:34:36.044Z,7.57
2023-02-19T21:37:17.344Z,3.78
2023-02-19T21:39:56.214Z,3.30
2023-02-19T21:42:37.965Z,4.53
2023-02-19T21:45:10.507Z,4.15
2023-02-19T21:48:02.201Z,4.88
2023-02-19T21:50:40.466Z,5.18
2023-02-19T21:53:27.204Z,4.18
2023-02-19T21:56:23.093Z,4.10
2023-02-19T21:58:57.954Z,25.73
2023-02-19T22:01:53.482Z,45.58
2023-02-19T22:04:35.040Z,10.88
2023-02-19T22:10:08.637Z,7.88
2023-02-19T22:12:50.327Z,15.35
2023-02-19T22:15:33.896Z,30.95
2023-02-19T22:18:13.414Z,38.15
2023-02-19T22:21:03.621Z,28.15
2023-02-19T22:23:44.108Z,7.97
2023-02-19T22:26:45.909Z,19.35
2023-02-19T22:29:31.070Z,21.85
2023-02-19T22:32:14.250Z,3.88
2023-02-19T22:35:04.898Z,14.00
2023-02-19T22:38:01.635Z,27.63
2023-02-19T22:40:49.223Z,26.45
2023-02-19T22:43:33.092Z,19.92
2023-02-19T22:46:23.179Z,39.60
2023-02-19T22:49:07.414Z,16.35
2023-02-19T22:52:08.516Z,4.80
2023-02-19T22:54:37.409Z,15.95
2023-02-19T22:57:20.368Z,9.25
2023-02-19T23:00:23.788Z,18.27
2023-02-19T23:03:10.042Z,9.27
2023-02-19T23:06:05.169Z,18.88
2023-02-19T23:08:52.329Z,3.22
2023-02-19T23:11:43.623Z,5.53
2023-02-19T23:14:39.312Z,3.55
2023-02-19T23:17:23.333Z,5.57
2023-02-19T23:20:22.338Z,5.90
2023-02-19T23:23:11.575Z,4.50
2023-02-19T23:26:04.308Z,8.43
2023-02-19T23:28:42.125Z,5.63
2023-02-19T23:31:18.341Z,9.00
2023-02-19T23:33:56.992Z,30.80
2023-02-19T23:37:03.360Z,14.73
2023-02-19T23:39:44.403Z,23.88
2023-02-19T23:42:28.480Z,10.02
2023-02-19T23:45:22.002Z,9.00
2023-02-19T23:48:12.761Z,19.35
2023-02-19T23:50:53.458Z,24.30
2023-02-19T23:53:49.352Z,20.70
2023-02-19T23:56:29.380Z,33.30
2023-02-19T23:59:10.828Z,35.55
